createdAt,value
2018-03-24T00:01:05.824Z,2.80
2018-03-24T00:03:33.408Z,2.76
2018-03-24T00:06:01.048Z,2.75
2018-03-24T00:08:28.694Z,2.70
2018-03-24T00:10:56.261Z,2.56
2018-03-24T00:13:23.905Z,2.52
2018-03-24T00:15:51.551Z,2.50
2018-03-24T00:18:19.137Z,2.55
2018-03-24T00:20:46.993Z,2.62
2018-03-24T00:23:14.634Z,2.63
2018-03-24T00:25:42.210Z,2.57
2018-03-24T00:28:12.942Z,2.60
2018-03-24T00:30:41.156Z,2.56
2018-03-24T00:33:08.799Z,2.57
2018-03-24T00:35:36.454Z,2.54
2018-03-24T00:38:04.057Z,2.52
2018-03-24T00:40:32.601Z,2.48
2018-03-24T00:43:00.324Z,2.46
2018-03-24T00:45:27.902Z,2.49
2018-03-24T00:47:57.436Z,2.45
2018-03-24T00:50:25.057Z,2.42
2018-03-24T00:52:52.702Z,2.35
2018-03-24T00:55:20.866Z,2.23
2018-03-24T00:57:48.794Z,2.19
2018-03-24T01:00:16.380Z,2.21
2018-03-24T01:02:43.958Z,2.25
2018-03-24T01:05:11.898Z,2.28
2018-03-24T01:07:39.467Z,2.34
2018-03-24T01:10:07.043Z,2.35
2018-03-24T01:12:34.680Z,2.42
2018-03-24T01:15:02.262Z,2.46
2018-03-24T01:17:29.809Z,2.52
2018-03-24T01:19:57.412Z,2.52
2018-03-24T01:22:24.997Z,2.53
2018-03-24T01:24:52.540Z,2.61
2018-03-24T01:27:20.171Z,2.57
2018-03-24T01:29:47.750Z,2.56
2018-03-24T01:32:15.315Z,2.52
2018-03-24T01:34:43.238Z,2.41
2018-03-24T01:37:10.819Z,2.29
2018-03-24T01:39:38.408Z,2.09
2018-03-24T01:42:06.090Z,1.90
2018-03-24T01:44:33.892Z,1.92
2018-03-24T01:47:01.747Z,1.98
2018-03-24T01:49:29.616Z,1.89
2018-03-24T01:51:57.184Z,1.84
2018-03-24T01:54:24.911Z,1.91
2018-03-24T01:56:52.859Z,1.89
2018-03-24T01:59:21.139Z,1.70
2018-03-24T02:01:48.723Z,1.81
2018-03-24T02:04:17.333Z,1.84
2018-03-24T02:06:44.893Z,1.90
2018-03-24T02:09:12.452Z,2.00
2018-03-24T02:11:40.828Z,2.06
2018-03-24T02:14:09.111Z,2.09
2018-03-24T02:16:36.753Z,2.10
2018-03-24T02:19:04.428Z,2.08
2018-03-24T02:21:32.501Z,2.05
2018-03-24T02:24:00.147Z,1.96
2018-03-24T02:26:27.853Z,1.90
2018-03-24T02:28:55.525Z,1.88
2018-03-24T02:31:23.092Z,1.87
2018-03-24T02:33:51.400Z,1.81
2018-03-24T02:36:18.965Z,1.83
2018-03-24T02:38:46.539Z,1.85
2018-03-24T02:41:14.208Z,1.83
2018-03-24T02:43:41.787Z,1.88
2018-03-24T02:46:09.407Z,1.92
2018-03-24T02:48:37.052Z,1.97
2018-03-24T02:51:04.640Z,1.97
2018-03-24T02:53:32.224Z,2.02
2018-03-24T02:56:00.604Z,2.11
2018-03-24T02:58:28.181Z,2.10
2018-03-24T03:00:55.855Z,2.16
2018-03-24T03:03:23.878Z,2.20
2018-03-24T03:05:51.822Z,2.16
2018-03-24T03:08:19.464Z,2.18
2018-03-24T03:10:47.117Z,2.16
2018-03-24T03:13:14.704Z,2.11
2018-03-24T03:15:42.295Z,2.08
2018-03-24T03:18:09.927Z,2.10
2018-03-24T03:20:37.674Z,2.05
2018-03-24T03:23:05.276Z,2.00
2018-03-24T03:25:32.900Z,1.96
2018-03-24T03:28:00.639Z,1.91
2018-03-24T03:30:29.935Z,1.90
2018-03-24T03:32:57.789Z,1.81
2018-03-24T03:35:25.364Z,1.80
2018-03-24T03:37:52.990Z,1.81
2018-03-24T03:40:20.649Z,1.85
2018-03-24T03:42:48.242Z,1.86
2018-03-24T03:45:15.825Z,1.88
2018-03-24T03:47:43.471Z,1.94
2018-03-24T03:50:11.037Z,2.01
2018-03-24T03:52:38.610Z,2.06
2018-03-24T03:55:06.247Z,2.12
2018-03-24T03:57:33.990Z,2.19
2018-03-24T04:00:01.576Z,2.13
2018-03-24T04:02:29.442Z,2.10
2018-03-24T04:04:57.016Z,2.06
2018-03-24T04:07:24.617Z,2.11
2018-03-24T04:09:52.546Z,2.11
2018-03-24T04:12:20.123Z,2.12
2018-03-24T04:14:47.709Z,2.14
2018-03-24T04:17:15.954Z,2.18
2018-03-24T04:19:43.524Z,2.23
2018-03-24T04:22:11.078Z,2.25
2018-03-24T04:24:38.703Z,2.30
2018-03-24T04:27:06.271Z,2.32
2018-03-24T04:29:33.842Z,2.31
2018-03-24T04:32:01.550Z,2.28
2018-03-24T04:34:29.126Z,2.25
2018-03-24T04:36:56.714Z,2.24
2018-03-24T04:39:24.676Z,2.21
2018-03-24T04:41:52.354Z,2.12
2018-03-24T04:44:19.929Z,2.11
2018-03-24T04:46:47.540Z,2.02
2018-03-24T04:49:15.245Z,1.95
2018-03-24T04:51:42.839Z,1.86
2018-03-24T04:54:10.550Z,1.86
2018-03-24T04:56:38.120Z,1.83
2018-03-24T04:59:05.779Z,1.79
2018-03-24T05:01:36.605Z,1.81
2018-03-24T05:04:04.201Z,1.76
2018-03-24T05:06:31.771Z,1.83
2018-03-24T05:08:59.436Z,1.86
2018-03-24T05:11:26.997Z,1.89
2018-03-24T05:13:55.052Z,1.99
2018-03-24T05:16:22.900Z,2.05
2018-03-24T05:18:50.475Z,2.15
2018-03-24T05:21:18.057Z,2.19
2018-03-24T05:23:47.232Z,2.27
2018-03-24T05:26:14.917Z,2.35
2018-03-24T05:28:42.477Z,2.45
2018-03-24T05:31:10.117Z,2.50
2018-03-24T05:33:37.830Z,2.51
2018-03-24T05:36:05.397Z,2.53
2018-03-24T05:38:33.033Z,2.58
2018-03-24T05:41:00.640Z,2.58
2018-03-24T05:43:28.212Z,2.51
2018-03-24T05:45:55.899Z,2.54
2018-03-24T05:48:23.528Z,2.66
2018-03-24T05:50:51.124Z,2.74
2018-03-24T05:53:18.834Z,2.77
2018-03-24T05:55:47.159Z,2.79
2018-03-24T05:58:14.724Z,2.86
2018-03-24T06:00:42.806Z,2.96
2018-03-24T06:03:10.465Z,3.03
2018-03-24T06:05:38.082Z,3.10
2018-03-24T06:08:05.752Z,3.16
2018-03-24T06:10:33.463Z,3.24
2018-03-24T06:13:01.042Z,3.26
2018-03-24T06:15:28.669Z,3.27
2018-03-24T06:17:56.306Z,3.22
2018-03-24T06:20:23.890Z,3.31
2018-03-24T06:22:51.570Z,3.42
2018-03-24T06:25:19.134Z,3.50
2018-03-24T06:27:46.711Z,3.61
2018-03-24T06:30:30.999Z,3.70
2018-03-24T06:32:58.675Z,3.76
2018-03-24T06:35:26.265Z,3.77
2018-03-24T06:37:54.210Z,3.83
2018-03-24T06:40:21.776Z,3.77
2018-03-24T06:42:49.348Z,3.59
2018-03-24T06:45:16.980Z,3.66
2018-03-24T06:47:44.561Z,3.73
2018-03-24T06:50:12.209Z,3.85
2018-03-24T06:52:39.834Z,4.00
2018-03-24T06:55:08.386Z,4.03
2018-03-24T06:57:35.974Z,4.10
2018-03-24T07:00:03.877Z,4.10
2018-03-24T07:02:31.588Z,4.23
2018-03-24T07:04:59.191Z,4.36
2018-03-24T07:07:26.814Z,4.48
2018-03-24T07:09:54.495Z,4.46
2018-03-24T07:12:22.091Z,4.34
2018-03-24T07:14:49.787Z,4.46
2018-03-24T07:17:18.036Z,4.53
2018-03-24T07:19:46.388Z,4.62
2018-03-24T07:22:14.054Z,4.65
2018-03-24T07:24:41.637Z,4.71
2018-03-24T07:27:09.274Z,4.59
2018-03-24T07:29:36.910Z,4.55
2018-03-24T07:32:04.572Z,4.62
2018-03-24T07:34:32.149Z,4.77
2018-03-24T07:37:00.049Z,4.95
2018-03-24T07:39:28.014Z,5.01
2018-03-24T07:41:55.602Z,5.09
2018-03-24T07:44:23.259Z,5.17
2018-03-24T07:46:50.922Z,5.35
2018-03-24T07:49:18.969Z,5.33
2018-03-24T07:51:46.588Z,5.30
2018-03-24T07:54:14.186Z,5.32
2018-03-24T07:56:43.721Z,5.34
2018-03-24T07:59:11.426Z,5.34
2018-03-24T08:01:39.012Z,5.42
2018-03-24T08:04:07.605Z,5.49
2018-03-24T08:06:35.219Z,5.48
2018-03-24T08:09:03.709Z,5.58
2018-03-24T08:11:31.271Z,5.58
2018-03-24T08:13:58.917Z,5.72
2018-03-24T08:16:26.507Z,5.78
2018-03-24T08:18:54.085Z,5.89
2018-03-24T08:21:21.773Z,6.10
2018-03-24T08:23:49.361Z,6.33
2018-03-24T08:26:16.931Z,6.40
2018-03-24T08:28:46.054Z,6.52
2018-03-24T08:31:14.450Z,6.75
2018-03-24T08:33:42.093Z,6.74
2018-03-24T08:36:09.730Z,6.85
2018-03-24T08:38:37.308Z,7.08
2018-03-24T08:41:04.972Z,7.28
2018-03-24T08:43:32.585Z,7.33
2018-03-24T08:46:00.151Z,7.49
2018-03-24T08:48:27.716Z,7.64
2018-03-24T08:50:55.414Z,7.72
2018-03-24T08:53:23.059Z,7.80
2018-03-24T08:55:51.458Z,7.63
2018-03-24T08:58:19.115Z,7.33
2018-03-24T09:00:46.701Z,7.46
2018-03-24T09:03:14.285Z,7.30
2018-03-24T09:05:42.009Z,7.36
2018-03-24T09:08:09.596Z,7.53
2018-03-24T09:10:37.185Z,7.98
2018-03-24T09:13:04.811Z,8.05
2018-03-24T09:15:32.410Z,8.26
2018-03-24T09:17:59.976Z,8.11
2018-03-24T09:20:27.614Z,8.36
2018-03-24T09:22:55.202Z,8.57
2018-03-24T09:25:22.810Z,8.45
2018-03-24T09:27:50.706Z,8.62
2018-03-24T09:30:18.289Z,7.98
2018-03-24T09:32:45.914Z,8.08
2018-03-24T09:35:13.593Z,7.92
2018-03-24T09:37:41.166Z,8.23
2018-03-24T09:40:08.801Z,8.34
2018-03-24T09:42:36.438Z,8.41
2018-03-24T09:45:04.121Z,8.56
2018-03-24T09:47:31.779Z,8.81
2018-03-24T09:49:59.402Z,9.13
2018-03-24T09:52:26.969Z,9.32
2018-03-24T09:54:54.536Z,9.35
2018-03-24T09:57:22.155Z,9.17
2018-03-24T09:59:49.729Z,9.37
2018-03-24T10:02:17.303Z,9.77
2018-03-24T10:04:45.226Z,9.98
2018-03-24T10:07:13.150Z,9.96
2018-03-24T10:09:40.722Z,9.90
2018-03-24T10:12:09.306Z,10.17
2018-03-24T10:14:36.941Z,9.60
2018-03-24T10:17:04.589Z,9.73
2018-03-24T10:19:32.212Z,9.12
2018-03-24T10:22:25.625Z,9.63
2018-03-24T10:24:53.285Z,10.16
2018-03-24T10:27:20.906Z,9.98
2018-03-24T10:29:48.482Z,10.22
2018-03-24T10:32:18.329Z,10.22
2018-03-24T10:34:45.920Z,10.40
2018-03-24T10:37:13.602Z,9.81
2018-03-24T10:39:44.444Z,9.67
2018-03-24T10:42:12.032Z,9.30
2018-03-24T10:44:39.607Z,9.09
2018-03-24T10:47:07.473Z,8.79
2018-03-24T10:49:35.177Z,9.02
2018-03-24T10:52:02.748Z,9.27
2018-03-24T10:54:30.375Z,9.47
2018-03-24T10:56:57.957Z,9.53
2018-03-24T10:59:25.547Z,9.75
2018-03-24T11:01:53.224Z,10.02
2018-03-24T11:04:20.845Z,9.98
2018-03-24T11:06:48.412Z,9.62
2018-03-24T11:09:16.131Z,9.03
2018-03-24T11:11:43.689Z,8.88
2018-03-24T11:14:11.328Z,9.04
2018-03-24T11:16:39.198Z,9.02
2018-03-24T11:19:06.798Z,9.02
2018-03-24T11:21:34.380Z,8.84
2018-03-24T11:24:02.279Z,8.21
2018-03-24T11:26:29.943Z,8.05
2018-03-24T11:28:57.513Z,8.19
2018-03-24T11:31:25.226Z,8.12
2018-03-24T11:33:52.793Z,7.87
2018-03-24T11:36:20.381Z,7.92
2018-03-24T11:38:48.028Z,7.66
2018-03-24T11:41:15.615Z,7.43
2018-03-24T11:43:44.059Z,7.35
2018-03-24T11:46:11.698Z,6.83
2018-03-24T11:48:39.269Z,6.41
2018-03-24T11:51:06.837Z,6.47
2018-03-24T11:53:46.358Z,6.34
2018-03-24T11:56:13.995Z,6.58
2018-03-24T11:58:41.556Z,6.53
2018-03-24T12:01:09.502Z,6.61
2018-03-24T12:03:37.072Z,6.64
2018-03-24T12:06:04.681Z,6.56
2018-03-24T12:08:32.309Z,6.46
2018-03-24T12:11:00.052Z,6.41
2018-03-24T12:13:27.682Z,6.30
2018-03-24T12:15:55.300Z,6.29
2018-03-24T12:18:22.863Z,6.33
2018-03-24T12:20:50.431Z,6.30
2018-03-24T12:23:18.052Z,6.47
2018-03-24T12:25:45.638Z,6.46
2018-03-24T12:28:13.197Z,6.05
2018-03-24T12:30:41.150Z,6.23
2018-03-24T12:33:08.736Z,6.42
2018-03-24T12:35:36.339Z,6.52
2018-03-24T12:38:03.972Z,6.55
2018-03-24T12:40:31.577Z,6.51
2018-03-24T12:42:59.236Z,6.18
2018-03-24T12:45:26.882Z,6.23
2018-03-24T12:47:54.449Z,6.28
2018-03-24T12:50:22.026Z,6.23
2018-03-24T12:52:49.656Z,6.33
2018-03-24T12:55:17.234Z,6.25
2018-03-24T12:57:45.437Z,6.38
2018-03-24T13:00:13.111Z,6.63
2018-03-24T13:02:40.685Z,6.73
2018-03-24T13:05:08.288Z,6.72
2018-03-24T13:07:36.005Z,6.43
2018-03-24T13:10:03.737Z,6.20
2018-03-24T13:12:31.873Z,6.18
2018-03-24T13:14:59.501Z,6.23
2018-03-24T13:17:27.188Z,6.28
2018-03-24T13:19:54.820Z,6.32
2018-03-24T13:22:22.438Z,6.30
2018-03-24T13:24:50.008Z,6.19
2018-03-24T13:27:17.600Z,5.90
2018-03-24T13:29:45.456Z,6.07
2018-03-24T13:32:13.046Z,6.05
2018-03-24T13:34:40.633Z,6.08
2018-03-24T13:37:08.471Z,6.09
2018-03-24T13:39:36.041Z,6.19
2018-03-24T13:42:03.699Z,6.15
2018-03-24T13:44:31.335Z,6.17
2018-03-24T13:46:58.980Z,6.18
2018-03-24T13:49:26.524Z,6.26
2018-03-24T13:51:54.203Z,6.21
2018-03-24T13:54:21.791Z,6.19
2018-03-24T13:56:49.366Z,6.00
2018-03-24T13:59:17.002Z,5.89
2018-03-24T14:01:45.262Z,5.93
2018-03-24T14:04:12.846Z,5.81
2018-03-24T14:06:40.475Z,5.90
2018-03-24T14:09:08.102Z,5.98
2018-03-24T14:11:35.673Z,6.05
2018-03-24T14:14:03.424Z,6.09
2018-03-24T14:16:31.017Z,6.14
2018-03-24T14:18:58.630Z,6.09
2018-03-24T14:21:26.318Z,6.11
2018-03-24T14:23:54.520Z,5.98
2018-03-24T14:26:22.140Z,6.03
2018-03-24T14:28:49.779Z,5.75
2018-03-24T14:31:17.353Z,5.49
2018-03-24T14:33:44.934Z,5.22
2018-03-24T14:36:12.646Z,5.02
2018-03-24T14:38:40.318Z,4.90
2018-03-24T14:41:07.908Z,4.85
2018-03-24T14:43:35.536Z,4.92
2018-03-24T14:46:03.181Z,4.93
2018-03-24T14:48:30.805Z,4.87
2018-03-24T14:50:58.467Z,4.74
2018-03-24T14:53:26.116Z,4.87
2018-03-24T14:55:53.707Z,4.87
2018-03-24T14:58:21.340Z,4.84
2018-03-24T15:00:48.978Z,4.86
2018-03-24T15:03:16.545Z,4.80
2018-03-24T15:05:44.970Z,4.71
2018-03-24T15:08:12.553Z,4.75
2018-03-24T15:10:40.139Z,4.66
2018-03-24T15:13:07.772Z,4.55
2018-03-24T15:15:35.574Z,4.37
2018-03-24T15:18:03.209Z,4.22
2018-03-24T15:20:30.856Z,4.23
2018-03-24T15:22:58.498Z,4.15
2018-03-24T15:25:26.061Z,4.07
2018-03-24T15:27:53.688Z,4.13
2018-03-24T15:30:33.018Z,3.90
2018-03-24T15:33:12.550Z,3.93
2018-03-24T15:36:01.265Z,3.88
2018-03-24T15:38:29.182Z,3.78
2018-03-24T15:40:56.748Z,3.81
2018-03-24T15:43:24.324Z,3.63
2018-03-24T15:45:51.976Z,3.61
2018-03-24T15:48:19.618Z,3.65
2018-03-24T15:50:47.199Z,3.51
2018-03-24T15:53:14.858Z,3.53
2018-03-24T15:55:42.502Z,3.40
2018-03-24T15:58:10.310Z,3.20
2018-03-24T16:00:38.109Z,3.17
2018-03-24T16:03:05.800Z,3.23
2018-03-24T16:05:33.443Z,3.08
2018-03-24T16:08:01.093Z,2.96
2018-03-24T16:10:28.926Z,2.75
2018-03-24T16:12:57.355Z,2.61
2018-03-24T16:15:25.206Z,2.62
2018-03-24T16:17:53.140Z,2.61
2018-03-24T16:20:21.061Z,2.54
2018-03-24T16:22:48.959Z,2.53
2018-03-24T16:25:17.364Z,2.60
2018-03-24T16:27:45.289Z,2.63
2018-03-24T16:30:13.243Z,2.69
2018-03-24T16:32:41.125Z,2.70
2018-03-24T16:35:09.047Z,2.69
2018-03-24T16:37:37.009Z,2.73
2018-03-24T16:40:04.963Z,2.78
2018-03-24T16:42:32.837Z,2.77
2018-03-24T16:45:00.738Z,2.83
2018-03-24T16:47:28.725Z,2.91
2018-03-24T16:49:56.606Z,2.89
2018-03-24T16:52:24.571Z,2.90
2018-03-24T16:54:52.458Z,2.96
2018-03-24T16:57:20.323Z,2.95
2018-03-24T16:59:48.277Z,2.98
2018-03-24T17:02:16.159Z,2.96
2018-03-24T17:04:44.038Z,2.94
2018-03-24T17:07:11.996Z,2.95
2018-03-24T17:09:39.870Z,3.01
2018-03-24T17:12:07.758Z,3.06
2018-03-24T17:14:35.700Z,3.01
2018-03-24T17:17:03.646Z,3.04
2018-03-24T17:19:31.609Z,3.00
2018-03-24T17:21:59.740Z,2.99
2018-03-24T17:24:27.618Z,2.86
2018-03-24T17:26:55.515Z,2.56
2018-03-24T17:29:23.445Z,2.55
2018-03-24T17:31:51.342Z,2.64
2018-03-24T17:34:19.216Z,2.53
2018-03-24T17:36:47.417Z,2.50
2018-03-24T17:39:15.734Z,2.59
2018-03-24T17:41:43.617Z,2.51
2018-03-24T17:44:12.308Z,2.44
2018-03-24T17:46:40.174Z,2.42
2018-03-24T17:49:08.128Z,2.46
2018-03-24T17:51:36.084Z,2.39
2018-03-24T17:54:04.041Z,2.43
2018-03-24T17:56:32.121Z,2.37
2018-03-24T17:59:00.084Z,2.37
2018-03-24T18:01:28.864Z,2.33
2018-03-24T18:03:56.756Z,2.31
2018-03-24T18:06:24.768Z,2.28
2018-03-24T18:08:52.662Z,2.33
2018-03-24T18:11:20.636Z,2.35
2018-03-24T18:13:48.931Z,2.42
2018-03-24T18:16:16.956Z,2.44
2018-03-24T18:18:45.536Z,2.51
2018-03-24T18:21:13.592Z,2.44
2018-03-24T18:23:41.493Z,2.40
2018-03-24T18:26:10.165Z,2.32
2018-03-24T18:28:38.116Z,2.29
2018-03-24T18:31:06.027Z,2.26
2018-03-24T18:33:33.989Z,2.13
2018-03-24T18:36:01.992Z,2.07
2018-03-24T18:38:29.893Z,2.06
2018-03-24T18:40:57.804Z,1.86
2018-03-24T18:43:26.410Z,1.95
2018-03-24T18:45:54.302Z,1.93
2018-03-24T18:48:23.067Z,1.95
2018-03-24T18:50:51.402Z,2.02
2018-03-24T18:53:19.275Z,2.05
2018-03-24T18:55:47.163Z,2.13
2018-03-24T18:58:15.120Z,2.16
2018-03-24T19:00:46.312Z,2.05
2018-03-24T19:03:14.187Z,1.94
2018-03-24T19:05:42.464Z,2.02
2018-03-24T19:08:10.379Z,2.08
2018-03-24T19:10:38.314Z,2.13
2018-03-24T19:13:06.316Z,2.19
2018-03-24T19:15:34.274Z,2.19
2018-03-24T19:18:02.262Z,2.04
2018-03-24T19:20:31.007Z,1.90
2018-03-24T19:22:59.105Z,1.96
2018-03-24T19:25:27.048Z,1.80
2018-03-24T19:27:54.947Z,1.88
2018-03-24T19:30:22.958Z,1.97
2018-03-24T19:32:51.820Z,2.01
2018-03-24T19:35:19.786Z,1.97
2018-03-24T19:37:48.010Z,2.01
2018-03-24T19:40:15.909Z,1.92
2018-03-24T19:42:43.872Z,1.93
2018-03-24T19:45:11.788Z,2.00
2018-03-24T19:47:39.705Z,2.10
2018-03-24T19:50:07.672Z,2.24
2018-03-24T19:52:35.653Z,2.27
2018-03-24T19:55:03.557Z,2.30
2018-03-24T19:57:31.880Z,2.26
2018-03-24T19:59:59.845Z,2.29
2018-03-24T20:02:28.819Z,2.30
2018-03-24T20:04:56.818Z,2.32
2018-03-24T20:07:24.763Z,2.33
2018-03-24T20:09:52.750Z,2.38
2018-03-24T20:12:20.688Z,2.37
2018-03-24T20:14:48.644Z,2.35
2018-03-24T20:17:16.583Z,2.35
2018-03-24T20:19:44.589Z,2.40
2018-03-24T20:22:12.548Z,2.30
2018-03-24T20:24:41.432Z,2.33
2018-03-24T20:27:09.396Z,2.32
2018-03-24T20:29:37.280Z,2.28
2018-03-24T20:32:05.183Z,2.30
2018-03-24T20:34:33.238Z,2.16
2018-03-24T20:37:01.172Z,2.18
2018-03-24T20:39:29.126Z,2.24
2018-03-24T20:41:57.346Z,2.17
2018-03-24T20:44:25.224Z,1.96
2018-03-24T20:46:53.086Z,1.86
2018-03-24T20:49:20.961Z,1.92
2018-03-24T20:51:48.900Z,1.90
2018-03-24T20:54:16.860Z,1.89
2018-03-24T20:56:44.792Z,1.89
2018-03-24T20:59:12.662Z,1.96
2018-03-24T21:01:40.384Z,2.04
2018-03-24T21:04:08.294Z,2.08
2018-03-24T21:06:36.039Z,2.13
2018-03-24T21:09:03.962Z,2.15
2018-03-24T21:11:32.098Z,2.19
2018-03-24T21:13:59.821Z,2.27
2018-03-24T21:16:27.481Z,2.34
2018-03-24T21:18:55.089Z,2.32
2018-03-24T21:21:22.689Z,2.37
2018-03-24T21:23:50.421Z,2.40
2018-03-24T21:26:18.539Z,2.42
2018-03-24T21:28:46.132Z,2.41
2018-03-24T21:31:13.722Z,2.44
2018-03-24T21:33:41.812Z,2.45
2018-03-24T21:36:09.418Z,2.48
2018-03-24T21:38:37.015Z,2.48
2018-03-24T21:41:04.957Z,2.46
2018-03-24T21:43:32.530Z,2.47
2018-03-24T21:46:00.101Z,2.45
2018-03-24T21:48:27.745Z,2.48
2018-03-24T21:50:55.341Z,2.49
2018-03-24T21:53:23.041Z,2.51
2018-03-24T21:55:50.695Z,2.52
2018-03-24T21:58:18.285Z,2.53
2018-03-24T22:00:45.896Z,2.51
2018-03-24T22:03:13.534Z,2.55
2018-03-24T22:05:41.116Z,2.55
2018-03-24T22:08:08.699Z,2.51
2018-03-24T22:10:36.590Z,2.51
2018-03-24T22:13:04.176Z,2.45
2018-03-24T22:15:31.789Z,2.37
2018-03-24T22:17:59.636Z,2.43
2018-03-24T22:20:27.301Z,2.49
2018-03-24T22:22:54.893Z,2.49
2018-03-24T22:25:22.545Z,2.55
2018-03-24T22:27:50.248Z,2.61
2018-03-24T22:30:17.841Z,2.57
2018-03-24T22:32:45.456Z,2.59
2018-03-24T22:35:13.029Z,2.56
2018-03-24T22:37:40.926Z,2.53
2018-03-24T22:40:08.796Z,2.56
2018-03-24T22:42:36.402Z,2.56
2018-03-24T22:45:04.102Z,2.56
2018-03-24T22:47:31.735Z,2.56
2018-03-24T22:49:59.322Z,2.59
2018-03-24T22:52:27.862Z,2.47
2018-03-24T22:54:55.537Z,2.42
2018-03-24T22:57:23.193Z,2.41
2018-03-24T22:59:50.829Z,2.38
2018-03-24T23:02:19.464Z,2.35
2018-03-24T23:04:47.059Z,2.39
2018-03-24T23:07:14.628Z,2.41
2018-03-24T23:09:42.472Z,2.46
2018-03-24T23:12:10.071Z,2.48
2018-03-24T23:14:37.640Z,2.49
2018-03-24T23:17:05.277Z,2.55
2018-03-24T23:19:32.879Z,2.50
2018-03-24T23:22:00.905Z,2.48
2018-03-24T23:24:28.605Z,2.48
2018-03-24T23:26:56.190Z,2.50
2018-03-24T23:29:23.876Z,2.51
2018-03-24T23:31:51.526Z,2.51
2018-03-24T23:34:19.160Z,2.51
2018-03-24T23:36:47.692Z,2.51
2018-03-24T23:39:15.351Z,2.56
2018-03-24T23:41:43.400Z,2.56
2018-03-24T23:44:10.976Z,2.63
2018-03-24T23:46:38.894Z,2.66
2018-03-24T23:49:06.530Z,2.68
2018-03-24T23:51:34.199Z,2.71
2018-03-24T23:54:02.060Z,2.75
2018-03-24T23:56:29.649Z,2.75
2018-03-24T23:58:57.238Z,2.72
